sensor_id;sensor_type;location;lat;lon;timestamp;temperature;humidity
54960;DHT22;40860;51.710;8.736;2022-11-15T00:02:15;10.40;95.20
54960;DHT22;40860;51.710;8.736;2022-11-15T00:06:37;10.30;95.30
54960;DHT22;40860;51.710;8.736;2022-11-15T00:11:01;10.30;95.50
54960;DHT22;40860;51.710;8.736;2022-11-15T00:15:23;10.30;95.70
54960;DHT22;40860;51.710;8.736;2022-11-15T00:19:44;10.30;95.80
54960;DHT22;40860;51.710;8.736;2022-11-15T00:24:06;10.30;96.00
54960;DHT22;40860;51.710;8.736;2022-11-15T00:28:30;10.30;96.20
54960;DHT22;40860;51.710;8.736;2022-11-15T00:32:51;10.30;96.10
54960;DHT22;40860;51.710;8.736;2022-11-15T00:37:12;10.20;96.40
54960;DHT22;40860;51.710;8.736;2022-11-15T00:41:34;10.30;96.80
54960;DHT22;40860;51.710;8.736;2022-11-15T00:45:56;10.40;97.00
54960;DHT22;40860;51.710;8.736;2022-11-15T00:50:18;10.40;97.00
54960;DHT22;40860;51.710;8.736;2022-11-15T00:54:39;10.50;97.20
54960;DHT22;40860;51.710;8.736;2022-11-15T00:59:01;10.50;97.20
54960;DHT22;40860;51.710;8.736;2022-11-15T01:03:23;10.50;97.20
54960;DHT22;40860;51.710;8.736;2022-11-15T01:07:45;10.40;97.10
54960;DHT22;40860;51.710;8.736;2022-11-15T01:12:07;10.40;97.40
54960;DHT22;40860;51.710;8.736;2022-11-15T01:16:28;10.40;97.60
54960;DHT22;40860;51.710;8.736;2022-11-15T01:20:51;10.40;97.90
54960;DHT22;40860;51.710;8.736;2022-11-15T01:25:12;10.40;97.70
54960;DHT22;40860;51.710;8.736;2022-11-15T01:29:34;10.40;97.80
54960;DHT22;40860;51.710;8.736;2022-11-15T01:33:56;10.40;98.10
54960;DHT22;40860;51.710;8.736;2022-11-15T01:38:18;10.50;98.20
54960;DHT22;40860;51.710;8.736;2022-11-15T01:42:40;10.50;98.20
54960;DHT22;40860;51.710;8.736;2022-11-15T01:47:04;10.60;98.30
54960;DHT22;40860;51.710;8.736;2022-11-15T01:51:29;10.60;98.40
54960;DHT22;40860;51.710;8.736;2022-11-15T01:55:54;10.50;98.40
54960;DHT22;40860;51.710;8.736;2022-11-15T02:00:16;10.50;98.50
54960;DHT22;40860;51.710;8.736;2022-11-15T02:04:40;10.50;98.50
54960;DHT22;40860;51.710;8.736;2022-11-15T02:09:02;10.40;98.60
54960;DHT22;40860;51.710;8.736;2022-11-15T02:13:25;10.40;98.70
54960;DHT22;40860;51.710;8.736;2022-11-15T02:17:58;10.50;99.00
54960;DHT22;40860;51.710;8.736;2022-11-15T02:22:32;10.60;98.90
54960;DHT22;40860;51.710;8.736;2022-11-15T02:31:55;10.60;98.70
54960;DHT22;40860;51.710;8.736;2022-11-15T02:36:25;10.60;98.80
54960;DHT22;40860;51.710;8.736;2022-11-15T02:40:53;10.50;98.80
54960;DHT22;40860;51.710;8.736;2022-11-15T02:45:23;10.50;98.80
54960;DHT22;40860;51.710;8.736;2022-11-15T02:49:48;10.40;98.90
54960;DHT22;40860;51.710;8.736;2022-11-15T02:54:13;10.40;99.10
54960;DHT22;40860;51.710;8.736;2022-11-15T02:58:48;10.50;99.10
54960;DHT22;40860;51.710;8.736;2022-11-15T03:03:26;10.50;99.10
54960;DHT22;40860;51.710;8.736;2022-11-15T03:07:55;10.50;99.10
54960;DHT22;40860;51.710;8.736;2022-11-15T03:12:26;10.50;99.00
54960;DHT22;40860;51.710;8.736;2022-11-15T03:16:53;10.50;99.00
54960;DHT22;40860;51.710;8.736;2022-11-15T03:21:19;10.50;99.10
54960;DHT22;40860;51.710;8.736;2022-11-15T03:25:47;10.50;99.10
54960;DHT22;40860;51.710;8.736;2022-11-15T03:30:10;10.60;99.00
54960;DHT22;40860;51.710;8.736;2022-11-15T03:34:35;10.60;98.90
54960;DHT22;40860;51.710;8.736;2022-11-15T03:39:01;10.70;98.80
54960;DHT22;40860;51.710;8.736;2022-11-15T03:43:30;10.60;98.80
54960;DHT22;40860;51.710;8.736;2022-11-15T03:47:59;10.60;98.90
54960;DHT22;40860;51.710;8.736;2022-11-15T03:52:23;10.70;98.90
54960;DHT22;40860;51.710;8.736;2022-11-15T03:56:44;10.70;98.80
54960;DHT22;40860;51.710;8.736;2022-11-15T04:01:07;10.70;98.80
54960;DHT22;40860;51.710;8.736;2022-11-15T04:05:29;10.80;98.80
54960;DHT22;40860;51.710;8.736;2022-11-15T04:09:50;10.90;98.80
54960;DHT22;40860;51.710;8.736;2022-11-15T04:14:23;10.90;98.90
54960;DHT22;40860;51.710;8.736;2022-11-15T04:18:46;10.90;99.00
54960;DHT22;40860;51.710;8.736;2022-11-15T04:23:38;10.90;98.60
54960;DHT22;40860;51.710;8.736;2022-11-15T04:28:23;10.90;98.60
54960;DHT22;40860;51.710;8.736;2022-11-15T04:32:44;10.90;98.50
54960;DHT22;40860;51.710;8.736;2022-11-15T04:37:07;10.90;98.50
54960;DHT22;40860;51.710;8.736;2022-11-15T04:41:36;11.00;98.50
54960;DHT22;40860;51.710;8.736;2022-11-15T04:45:57;11.00;98.50
54960;DHT22;40860;51.710;8.736;2022-11-15T04:50:18;11.00;98.50
54960;DHT22;40860;51.710;8.736;2022-11-15T04:54:41;11.10;98.50
54960;DHT22;40860;51.710;8.736;2022-11-15T04:59:03;11.10;98.50
54960;DHT22;40860;51.710;8.736;2022-11-15T05:03:24;11.30;98.50
54960;DHT22;40860;51.710;8.736;2022-11-15T05:08:03;11.30;98.30
54960;DHT22;40860;51.710;8.736;2022-11-15T05:12:26;11.30;98.40
54960;DHT22;40860;51.710;8.736;2022-11-15T05:16:47;11.40;98.40
54960;DHT22;40860;51.710;8.736;2022-11-15T05:21:10;11.40;98.40
54960;DHT22;40860;51.710;8.736;2022-11-15T05:25:32;11.40;98.30
54960;DHT22;40860;51.710;8.736;2022-11-15T05:29:55;11.50;98.20
54960;DHT22;40860;51.710;8.736;2022-11-15T05:34:17;11.50;98.30
54960;DHT22;40860;51.710;8.736;2022-11-15T05:38:38;11.40;98.20
54960;DHT22;40860;51.710;8.736;2022-11-15T05:43:02;11.40;98.20
54960;DHT22;40860;51.710;8.736;2022-11-15T05:47:28;11.40;98.20
54960;DHT22;40860;51.710;8.736;2022-11-15T05:51:51;11.30;98.20
54960;DHT22;40860;51.710;8.736;2022-11-15T05:56:14;11.30;98.20
54960;DHT22;40860;51.710;8.736;2022-11-15T06:00:36;11.20;98.20
54960;DHT22;40860;51.710;8.736;2022-11-15T06:04:59;11.20;98.20
54960;DHT22;40860;51.710;8.736;2022-11-15T06:09:20;11.10;98.20
54960;DHT22;40860;51.710;8.736;2022-11-15T06:13:42;11.00;98.30
54960;DHT22;40860;51.710;8.736;2022-11-15T06:18:03;11.00;98.30
54960;DHT22;40860;51.710;8.736;2022-11-15T06:22:26;11.00;98.30
54960;DHT22;40860;51.710;8.736;2022-11-15T06:26:47;11.00;98.30
54960;DHT22;40860;51.710;8.736;2022-11-15T06:31:10;10.90;98.30
54960;DHT22;40860;51.710;8.736;2022-11-15T06:35:34;10.90;98.40
54960;DHT22;40860;51.710;8.736;2022-11-15T06:39:57;10.90;98.40
54960;DHT22;40860;51.710;8.736;2022-11-15T06:44:18;11.00;98.30
54960;DHT22;40860;51.710;8.736;2022-11-15T06:48:40;11.00;98.30
54960;DHT22;40860;51.710;8.736;2022-11-15T06:53:02;11.10;98.30
54960;DHT22;40860;51.710;8.736;2022-11-15T06:57:25;11.10;98.30
54960;DHT22;40860;51.710;8.736;2022-11-15T07:01:47;11.00;98.20
54960;DHT22;40860;51.710;8.736;2022-11-15T07:06:08;11.10;98.30
54960;DHT22;40860;51.710;8.736;2022-11-15T07:10:30;11.20;98.30
54960;DHT22;40860;51.710;8.736;2022-11-15T07:14:53;11.20;98.40
54960;DHT22;40860;51.710;8.736;2022-11-15T07:19:15;11.20;98.10
54960;DHT22;40860;51.710;8.736;2022-11-15T07:23:36;11.30;98.00
54960;DHT22;40860;51.710;8.736;2022-11-15T07:27:59;11.40;97.90
54960;DHT22;40860;51.710;8.736;2022-11-15T07:32:22;11.40;97.90
54960;DHT22;40860;51.710;8.736;2022-11-15T07:36:43;11.40;97.90
54960;DHT22;40860;51.710;8.736;2022-11-15T07:41:05;11.50;97.90
54960;DHT22;40860;51.710;8.736;2022-11-15T07:45:27;11.60;97.80
54960;DHT22;40860;51.710;8.736;2022-11-15T07:49:49;11.80;97.60
54960;DHT22;40860;51.710;8.736;2022-11-15T07:54:12;11.90;97.40
54960;DHT22;40860;51.710;8.736;2022-11-15T07:58:33;12.00;97.30
54960;DHT22;40860;51.710;8.736;2022-11-15T08:03:01;12.10;97.20
54960;DHT22;40860;51.710;8.736;2022-11-15T08:07:24;12.10;97.00
54960;DHT22;40860;51.710;8.736;2022-11-15T08:11:45;12.30;96.80
54960;DHT22;40860;51.710;8.736;2022-11-15T08:16:08;12.40;96.60
54960;DHT22;40860;51.710;8.736;2022-11-15T08:20:29;12.40;96.50
54960;DHT22;40860;51.710;8.736;2022-11-15T08:24:52;12.40;96.40
54960;DHT22;40860;51.710;8.736;2022-11-15T08:29:13;12.50;96.30
54960;DHT22;40860;51.710;8.736;2022-11-15T08:33:35;12.60;96.10
54960;DHT22;40860;51.710;8.736;2022-11-15T08:37:56;12.70;96.00
54960;DHT22;40860;51.710;8.736;2022-11-15T08:42:19;12.80;95.80
54960;DHT22;40860;51.710;8.736;2022-11-15T08:46:40;13.00;95.40
54960;DHT22;40860;51.710;8.736;2022-11-15T08:51:02;13.10;95.20
54960;DHT22;40860;51.710;8.736;2022-11-15T08:55:24;13.20;94.90
54960;DHT22;40860;51.710;8.736;2022-11-15T08:59:46;13.20;94.80
54960;DHT22;40860;51.710;8.736;2022-11-15T09:04:08;13.20;94.60
54960;DHT22;40860;51.710;8.736;2022-11-15T09:08:30;13.30;94.40
54960;DHT22;40860;51.710;8.736;2022-11-15T09:13:07;13.60;94.00
54960;DHT22;40860;51.710;8.736;2022-11-15T09:17:30;14.00;93.40
54960;DHT22;40860;51.710;8.736;2022-11-15T09:21:52;14.30;92.90
54960;DHT22;40860;51.710;8.736;2022-11-15T09:26:13;14.70;92.10
54960;DHT22;40860;51.710;8.736;2022-11-15T09:30:34;15.10;91.60
54960;DHT22;40860;51.710;8.736;2022-11-15T09:34:57;15.30;90.90
54960;DHT22;40860;51.710;8.736;2022-11-15T09:39:18;15.10;90.10
54960;DHT22;40860;51.710;8.736;2022-11-15T09:43:46;14.80;90.20
54960;DHT22;40860;51.710;8.736;2022-11-15T09:53:24;14.70;90.30
54960;DHT22;40860;51.710;8.736;2022-11-15T09:57:54;14.60;90.40
54960;DHT22;40860;51.710;8.736;2022-11-15T10:02:08;14.60;90.40
54960;DHT22;40860;51.710;8.736;2022-11-15T10:06:22;14.60;90.40
54960;DHT22;40860;51.710;8.736;2022-11-15T10:10:29;14.80;90.20
54960;DHT22;40860;51.710;8.736;2022-11-15T10:14:35;15.00;89.50
54960;DHT22;40860;51.710;8.736;2022-11-15T10:18:47;15.20;88.10
54960;DHT22;40860;51.710;8.736;2022-11-15T10:22:55;15.30;87.10
54960;DHT22;40860;51.710;8.736;2022-11-15T10:27:00;15.30;86.20
54960;DHT22;40860;51.710;8.736;2022-11-15T10:31:11;15.30;85.70
54960;DHT22;40860;51.710;8.736;2022-11-15T10:35:24;15.20;84.20
54960;DHT22;40860;51.710;8.736;2022-11-15T10:39:29;15.20;84.70
54960;DHT22;40860;51.710;8.736;2022-11-15T10:43:33;15.20;83.90
54960;DHT22;40860;51.710;8.736;2022-11-15T10:47:36;15.10;84.10
54960;DHT22;40860;51.710;8.736;2022-11-15T10:51:43;15.00;83.10
54960;DHT22;40860;51.710;8.736;2022-11-15T10:55:49;15.00;83.60
54960;DHT22;40860;51.710;8.736;2022-11-15T10:59:55;14.90;84.00
54960;DHT22;40860;51.710;8.736;2022-11-15T11:04:00;14.90;84.50
54960;DHT22;40860;51.710;8.736;2022-11-15T11:08:05;14.90;84.30
54960;DHT22;40860;51.710;8.736;2022-11-15T11:12:55;14.90;84.70
54960;DHT22;40860;51.710;8.736;2022-11-15T11:17:03;14.90;84.20
54960;DHT22;40860;51.710;8.736;2022-11-15T11:21:10;14.90;83.90
54960;DHT22;40860;51.710;8.736;2022-11-15T11:25:22;15.10;83.80
54960;DHT22;40860;51.710;8.736;2022-11-15T11:29:38;15.10;83.30
54960;DHT22;40860;51.710;8.736;2022-11-15T11:33:50;15.10;82.60
54960;DHT22;40860;51.710;8.736;2022-11-15T11:38:05;15.00;81.70
54960;DHT22;40860;51.710;8.736;2022-11-15T11:42:24;15.00;82.30
54960;DHT22;40860;51.710;8.736;2022-11-15T11:46:47;15.00;82.70
54960;DHT22;40860;51.710;8.736;2022-11-15T11:50:52;15.10;82.90
54960;DHT22;40860;51.710;8.736;2022-11-15T11:55:05;15.20;83.30
54960;DHT22;40860;51.710;8.736;2022-11-15T11:59:19;15.40;83.40
54960;DHT22;40860;51.710;8.736;2022-11-15T12:03:30;15.60;83.40
54960;DHT22;40860;51.710;8.736;2022-11-15T12:07:39;15.80;84.20
54960;DHT22;40860;51.710;8.736;2022-11-15T12:11:50;15.90;82.80
54960;DHT22;40860;51.710;8.736;2022-11-15T12:15:58;15.90;82.70
54960;DHT22;40860;51.710;8.736;2022-11-15T12:20:16;15.80;82.70
54960;DHT22;40860;51.710;8.736;2022-11-15T12:24:25;15.70;82.90
54960;DHT22;40860;51.710;8.736;2022-11-15T12:28:34;15.80;82.80
54960;DHT22;40860;51.710;8.736;2022-11-15T12:33:00;15.70;81.80
54960;DHT22;40860;51.710;8.736;2022-11-15T12:37:33;15.60;82.70
54960;DHT22;40860;51.710;8.736;2022-11-15T12:41:38;15.50;82.60
54960;DHT22;40860;51.710;8.736;2022-11-15T12:45:42;15.60;82.80
54960;DHT22;40860;51.710;8.736;2022-11-15T12:49:47;15.80;83.00
54960;DHT22;40860;51.710;8.736;2022-11-15T12:53:50;15.90;81.90
54960;DHT22;40860;51.710;8.736;2022-11-15T12:57:54;15.90;80.80
54960;DHT22;40860;51.710;8.736;2022-11-15T13:01:59;15.90;81.30
54960;DHT22;40860;51.710;8.736;2022-11-15T13:06:39;15.80;80.00
54960;DHT22;40860;51.710;8.736;2022-11-15T13:10:43;15.80;80.10
54960;DHT22;40860;51.710;8.736;2022-11-15T13:14:54;15.70;79.00
54960;DHT22;40860;51.710;8.736;2022-11-15T13:18:59;15.60;79.20
54960;DHT22;40860;51.710;8.736;2022-11-15T13:23:09;15.60;80.20
54960;DHT22;40860;51.710;8.736;2022-11-15T13:27:15;15.70;80.20
54960;DHT22;40860;51.710;8.736;2022-11-15T13:31:28;15.80;79.00
54960;DHT22;40860;51.710;8.736;2022-11-15T13:35:33;15.80;76.30
54960;DHT22;40860;51.710;8.736;2022-11-15T13:39:38;15.70;77.30
54960;DHT22;40860;51.710;8.736;2022-11-15T13:43:41;15.70;77.00
54960;DHT22;40860;51.710;8.736;2022-11-15T13:47:51;15.80;77.30
54960;DHT22;40860;51.710;8.736;2022-11-15T13:51:54;15.80;76.00
54960;DHT22;40860;51.710;8.736;2022-11-15T13:55:58;15.80;75.30
54960;DHT22;40860;51.710;8.736;2022-11-15T14:00:04;15.80;76.00
54960;DHT22;40860;51.710;8.736;2022-11-15T14:04:19;15.80;75.80
54960;DHT22;40860;51.710;8.736;2022-11-15T14:08:24;15.70;76.10
54960;DHT22;40860;51.710;8.736;2022-11-15T14:12:30;15.60;75.80
54960;DHT22;40860;51.710;8.736;2022-11-15T14:16:34;15.50;76.30
54960;DHT22;40860;51.710;8.736;2022-11-15T14:20:39;15.40;76.00
54960;DHT22;40860;51.710;8.736;2022-11-15T14:24:45;15.40;76.50
54960;DHT22;40860;51.710;8.736;2022-11-15T14:28:48;15.30;77.00
54960;DHT22;40860;51.710;8.736;2022-11-15T14:32:54;15.20;76.90
54960;DHT22;40860;51.710;8.736;2022-11-15T14:36:59;15.20;77.20
54960;DHT22;40860;51.710;8.736;2022-11-15T14:41:02;15.10;77.40
54960;DHT22;40860;51.710;8.736;2022-11-15T14:45:10;15.00;77.30
54960;DHT22;40860;51.710;8.736;2022-11-15T14:49:14;14.90;78.60
54960;DHT22;40860;51.710;8.736;2022-11-15T14:53:19;14.80;78.40
54960;DHT22;40860;51.710;8.736;2022-11-15T14:57:23;14.70;78.90
54960;DHT22;40860;51.710;8.736;2022-11-15T15:01:27;14.60;79.50
54960;DHT22;40860;51.710;8.736;2022-11-15T15:05:31;14.60;79.60
54960;DHT22;40860;51.710;8.736;2022-11-15T15:09:36;14.50;79.90
54960;DHT22;40860;51.710;8.736;2022-11-15T15:13:39;14.40;80.40
54960;DHT22;40860;51.710;8.736;2022-11-15T15:17:45;14.40;81.10
54960;DHT22;40860;51.710;8.736;2022-11-15T15:21:47;14.30;81.50
54960;DHT22;40860;51.710;8.736;2022-11-15T15:25:53;14.30;82.20
54960;DHT22;40860;51.710;8.736;2022-11-15T15:29:56;14.20;82.40
54960;DHT22;40860;51.710;8.736;2022-11-15T15:33:58;14.20;83.00
54960;DHT22;40860;51.710;8.736;2022-11-15T15:38:02;14.10;83.50
54960;DHT22;40860;51.710;8.736;2022-11-15T15:42:06;14.00;83.90
54960;DHT22;40860;51.710;8.736;2022-11-15T15:46:11;14.00;84.60
54960;DHT22;40860;51.710;8.736;2022-11-15T15:50:20;13.90;85.00
54960;DHT22;40860;51.710;8.736;2022-11-15T15:54:23;13.90;85.50
54960;DHT22;40860;51.710;8.736;2022-11-15T15:58:27;13.90;85.60
54960;DHT22;40860;51.710;8.736;2022-11-15T16:02:31;13.90;85.90
54960;DHT22;40860;51.710;8.736;2022-11-15T16:06:41;13.90;86.20
54960;DHT22;40860;51.710;8.736;2022-11-15T16:10:46;13.80;86.30
54960;DHT22;40860;51.710;8.736;2022-11-15T16:14:50;13.80;86.60
54960;DHT22;40860;51.710;8.736;2022-11-15T16:22:56;13.70;86.40
54960;DHT22;40860;51.710;8.736;2022-11-15T16:27:03;13.70;87.30
54960;DHT22;40860;51.710;8.736;2022-11-15T16:31:10;13.70;87.80
54960;DHT22;40860;51.710;8.736;2022-11-15T16:35:15;13.70;88.10
54960;DHT22;40860;51.710;8.736;2022-11-15T16:39:18;13.70;88.70
54960;DHT22;40860;51.710;8.736;2022-11-15T16:43:21;13.60;89.30
54960;DHT22;40860;51.710;8.736;2022-11-15T16:47:25;13.60;89.50
54960;DHT22;40860;51.710;8.736;2022-11-15T16:51:28;13.60;89.80
54960;DHT22;40860;51.710;8.736;2022-11-15T16:55:31;13.60;90.00
54960;DHT22;40860;51.710;8.736;2022-11-15T16:59:34;13.60;90.00
54960;DHT22;40860;51.710;8.736;2022-11-15T17:03:40;13.60;90.10
54960;DHT22;40860;51.710;8.736;2022-11-15T17:07:46;13.50;90.20
54960;DHT22;40860;51.710;8.736;2022-11-15T17:11:51;13.50;90.30
54960;DHT22;40860;51.710;8.736;2022-11-15T17:16:03;13.50;90.40
54960;DHT22;40860;51.710;8.736;2022-11-15T17:20:13;13.50;90.50
54960;DHT22;40860;51.710;8.736;2022-11-15T17:24:16;13.40;90.60
54960;DHT22;40860;51.710;8.736;2022-11-15T17:28:21;13.40;90.70
54960;DHT22;40860;51.710;8.736;2022-11-15T17:32:24;13.40;90.90
54960;DHT22;40860;51.710;8.736;2022-11-15T17:36:28;13.40;91.00
54960;DHT22;40860;51.710;8.736;2022-11-15T17:40:32;13.40;91.00
54960;DHT22;40860;51.710;8.736;2022-11-15T17:44:35;13.40;91.10
54960;DHT22;40860;51.710;8.736;2022-11-15T17:48:38;13.40;91.20
54960;DHT22;40860;51.710;8.736;2022-11-15T17:52:42;13.40;91.20
54960;DHT22;40860;51.710;8.736;2022-11-15T17:56:45;13.40;91.30
54960;DHT22;40860;51.710;8.736;2022-11-15T18:00:48;13.40;91.30
54960;DHT22;40860;51.710;8.736;2022-11-15T18:04:50;13.40;91.20
54960;DHT22;40860;51.710;8.736;2022-11-15T18:08:55;13.40;91.20
54960;DHT22;40860;51.710;8.736;2022-11-15T18:12:58;13.40;91.20
54960;DHT22;40860;51.710;8.736;2022-11-15T18:17:01;13.40;91.20
54960;DHT22;40860;51.710;8.736;2022-11-15T18:21:06;13.50;91.30
54960;DHT22;40860;51.710;8.736;2022-11-15T18:25:10;13.50;91.20
54960;DHT22;40860;51.710;8.736;2022-11-15T18:29:16;13.50;91.20
54960;DHT22;40860;51.710;8.736;2022-11-15T18:33:20;13.50;91.20
54960;DHT22;40860;51.710;8.736;2022-11-15T18:37:24;13.60;91.10
54960;DHT22;40860;51.710;8.736;2022-11-15T18:41:32;13.60;91.00
54960;DHT22;40860;51.710;8.736;2022-11-15T18:45:36;13.60;91.00
54960;DHT22;40860;51.710;8.736;2022-11-15T18:49:39;13.60;91.00
54960;DHT22;40860;51.710;8.736;2022-11-15T18:53:46;13.60;91.00
54960;DHT22;40860;51.710;8.736;2022-11-15T18:57:51;13.60;91.10
54960;DHT22;40860;51.710;8.736;2022-11-15T19:01:54;13.60;91.00
54960;DHT22;40860;51.710;8.736;2022-11-15T19:06:02;13.60;91.10
54960;DHT22;40860;51.710;8.736;2022-11-15T19:10:06;13.60;91.00
54960;DHT22;40860;51.710;8.736;2022-11-15T19:14:14;13.50;91.00
54960;DHT22;40860;51.710;8.736;2022-11-15T19:18:17;13.50;91.10
54960;DHT22;40860;51.710;8.736;2022-11-15T19:22:20;13.50;91.20
54960;DHT22;40860;51.710;8.736;2022-11-15T19:26:25;13.40;91.20
54960;DHT22;40860;51.710;8.736;2022-11-15T19:30:29;13.40;91.30
54960;DHT22;40860;51.710;8.736;2022-11-15T19:34:32;13.40;91.20
54960;DHT22;40860;51.710;8.736;2022-11-15T19:38:35;13.40;91.30
54960;DHT22;40860;51.710;8.736;2022-11-15T19:42:38;13.40;91.30
54960;DHT22;40860;51.710;8.736;2022-11-15T19:46:42;13.40;91.30
54960;DHT22;40860;51.710;8.736;2022-11-15T19:50:46;13.40;91.30
54960;DHT22;40860;51.710;8.736;2022-11-15T19:54:48;13.30;91.30
54960;DHT22;40860;51.710;8.736;2022-11-15T19:58:52;13.30;91.30
54960;DHT22;40860;51.710;8.736;2022-11-15T20:02:57;13.30;91.30
54960;DHT22;40860;51.710;8.736;2022-11-15T20:07:00;13.30;91.30
54960;DHT22;40860;51.710;8.736;2022-11-15T20:11:03;13.30;91.30
54960;DHT22;40860;51.710;8.736;2022-11-15T20:15:07;13.30;91.30
54960;DHT22;40860;51.710;8.736;2022-11-15T20:19:11;13.20;91.30
54960;DHT22;40860;51.710;8.736;2022-11-15T20:23:16;13.20;91.30
54960;DHT22;40860;51.710;8.736;2022-11-15T20:27:19;13.20;91.30
54960;DHT22;40860;51.710;8.736;2022-11-15T20:31:23;13.20;91.20
54960;DHT22;40860;51.710;8.736;2022-11-15T20:35:27;13.10;91.10
54960;DHT22;40860;51.710;8.736;2022-11-15T20:39:30;13.10;91.20
54960;DHT22;40860;51.710;8.736;2022-11-15T20:43:33;13.10;91.10
54960;DHT22;40860;51.710;8.736;2022-11-15T20:47:36;13.10;91.10
54960;DHT22;40860;51.710;8.736;2022-11-15T20:51:40;13.10;91.10
54960;DHT22;40860;51.710;8.736;2022-11-15T20:55:45;13.10;91.10
54960;DHT22;40860;51.710;8.736;2022-11-15T20:59:49;13.10;91.00
54960;DHT22;40860;51.710;8.736;2022-11-15T21:03:53;13.00;91.00
54960;DHT22;40860;51.710;8.736;2022-11-15T21:07:57;13.00;91.00
54960;DHT22;40860;51.710;8.736;2022-11-15T21:12:00;13.00;91.10
54960;DHT22;40860;51.710;8.736;2022-11-15T21:16:14;13.00;91.10
54960;DHT22;40860;51.710;8.736;2022-11-15T21:20:18;12.90;91.10
54960;DHT22;40860;51.710;8.736;2022-11-15T21:24:22;12.90;91.10
54960;DHT22;40860;51.710;8.736;2022-11-15T21:28:25;12.90;91.00
54960;DHT22;40860;51.710;8.736;2022-11-15T21:32:30;12.90;91.30
54960;DHT22;40860;51.710;8.736;2022-11-15T21:36:36;12.90;91.00
54960;DHT22;40860;51.710;8.736;2022-11-15T21:40:40;12.80;91.00
54960;DHT22;40860;51.710;8.736;2022-11-15T21:44:43;12.80;91.00
54960;DHT22;40860;51.710;8.736;2022-11-15T21:48:48;12.80;90.90
54960;DHT22;40860;51.710;8.736;2022-11-15T21:52:51;12.80;90.90
54960;DHT22;40860;51.710;8.736;2022-11-15T21:56:59;12.80;90.90
54960;DHT22;40860;51.710;8.736;2022-11-15T22:01:02;12.80;90.90
54960;DHT22;40860;51.710;8.736;2022-11-15T22:05:23;12.80;90.90
54960;DHT22;40860;51.710;8.736;2022-11-15T22:09:25;12.80;90.90
54960;DHT22;40860;51.710;8.736;2022-11-15T22:13:30;12.80;90.90
54960;DHT22;40860;51.710;8.736;2022-11-15T22:17:32;12.80;90.90
54960;DHT22;40860;51.710;8.736;2022-11-15T22:21:50;12.80;91.00
54960;DHT22;40860;51.710;8.736;2022-11-15T22:25:53;12.70;91.00
54960;DHT22;40860;51.710;8.736;2022-11-15T22:29:59;12.70;91.20
54960;DHT22;40860;51.710;8.736;2022-11-15T22:34:03;12.70;91.20
54960;DHT22;40860;51.710;8.736;2022-11-15T22:38:06;12.60;91.30
54960;DHT22;40860;51.710;8.736;2022-11-15T22:42:09;12.60;91.70
54960;DHT22;40860;51.710;8.736;2022-11-15T22:46:14;12.50;92.20
54960;DHT22;40860;51.710;8.736;2022-11-15T22:50:17;12.40;92.50
54960;DHT22;40860;51.710;8.736;2022-11-15T22:54:20;12.30;92.80
54960;DHT22;40860;51.710;8.736;2022-11-15T22:58:24;12.30;93.00
54960;DHT22;40860;51.710;8.736;2022-11-15T23:02:29;12.20;93.20
54960;DHT22;40860;51.710;8.736;2022-11-15T23:06:32;12.20;93.20
54960;DHT22;40860;51.710;8.736;2022-11-15T23:10:36;12.10;93.40
54960;DHT22;40860;51.710;8.736;2022-11-15T23:14:56;12.10;94.00
54960;DHT22;40860;51.710;8.736;2022-11-15T23:19:03;12.00;93.80
54960;DHT22;40860;51.710;8.736;2022-11-15T23:23:06;11.90;94.00
54960;DHT22;40860;51.710;8.736;2022-11-15T23:27:09;11.80;94.10
54960;DHT22;40860;51.710;8.736;2022-11-15T23:31:15;11.80;94.30
54960;DHT22;40860;51.710;8.736;2022-11-15T23:35:37;11.70;94.60
54960;DHT22;40860;51.710;8.736;2022-11-15T23:39:40;11.70;94.80
54960;DHT22;40860;51.710;8.736;2022-11-15T23:43:43;11.60;94.80
54960;DHT22;40860;51.710;8.736;2022-11-15T23:47:46;11.60;95.00
54960;DHT22;40860;51.710;8.736;2022-11-15T23:51:50;11.50;95.20
54960;DHT22;40860;51.710;8.736;2022-11-15T23:55:54;11.50;95.30
54960;DHT22;40860;51.710;8.736;2022-11-15T23:59:57;11.50;95.50
